createdAt,value
2018-02-10T00:02:15.511Z,43.50
2018-02-10T04:10:24.875Z,45.95
2018-02-10T08:37:41.401Z,40.47
2018-02-10T08:40:14.870Z,43.45
2018-02-10T08:42:45.468Z,40.65
2018-02-10T08:45:29.135Z,45.25
2018-02-10T08:50:38.251Z,41.78
2018-02-10T08:53:07.334Z,30.70
2018-02-10T08:55:38.267Z,48.80
2018-02-10T08:58:07.723Z,58.30
2018-02-10T09:00:36.375Z,45.65
2018-02-10T09:03:05.051Z,47.90
2018-02-10T09:05:34.500Z,45.88
2018-02-10T09:08:03.236Z,45.47
2018-02-10T09:10:32.700Z,44.67
2018-02-10T09:13:01.368Z,50.25
2018-02-10T09:15:31.208Z,46.78
2018-02-10T09:18:02.577Z,46.25
2018-02-10T09:20:31.244Z,45.17
2018-02-10T09:22:59.922Z,45.45
2018-02-10T09:25:28.584Z,45.92
2018-02-10T09:27:57.272Z,47.47
2018-02-10T09:30:25.945Z,44.10
2018-02-10T09:32:54.635Z,47.20
2018-02-10T09:35:23.328Z,46.60
2018-02-10T09:37:52.002Z,46.55
2018-02-10T09:40:20.681Z,48.10
2018-02-10T09:42:50.091Z,45.58
2018-02-10T09:45:19.531Z,45.90
2018-02-10T09:47:48.186Z,43.28
2018-02-10T09:50:17.775Z,45.58
2018-02-10T09:52:47.211Z,44.83
2018-02-10T09:55:16.677Z,45.30
2018-02-10T09:57:46.114Z,41.75
2018-02-10T10:00:16.017Z,45.55
2018-02-10T10:02:44.700Z,47.13
2018-02-10T10:05:16.364Z,46.25
2018-02-10T10:07:47.669Z,46.25
2018-02-10T10:10:16.334Z,46.67
2018-02-10T10:12:47.975Z,47.22
2018-02-10T10:15:22.028Z,44.70
2018-02-10T10:17:55.425Z,43.72
2018-02-10T10:20:42.279Z,44.90
2018-02-10T10:23:10.954Z,44.13
2018-02-10T10:25:41.089Z,44.63
2018-02-10T10:28:09.797Z,44.35
2018-02-10T10:30:38.627Z,50.90
2018-02-10T10:33:07.314Z,45.85
2018-02-10T10:35:35.990Z,44.92
2018-02-10T10:38:06.058Z,46.53
2018-02-10T10:40:34.796Z,45.17
2018-02-10T10:43:03.622Z,44.38
2018-02-10T10:45:33.058Z,44.10
2018-02-10T10:48:04.783Z,42.78
2018-02-10T10:50:35.215Z,43.65
2018-02-10T10:53:03.965Z,43.38
2018-02-10T10:55:33.785Z,43.60
2018-02-10T10:58:02.459Z,39.25
2018-02-10T11:00:32.029Z,38.00
2018-02-10T11:03:00.712Z,34.13
2018-02-10T11:05:29.402Z,34.67
2018-02-10T11:07:58.063Z,33.25
2018-02-10T11:10:27.541Z,28.65
2018-02-10T11:12:56.241Z,31.23
2018-02-10T11:15:25.105Z,27.73
2018-02-10T11:17:53.775Z,28.85
2018-02-10T11:20:22.465Z,27.27
2018-02-10T11:22:51.143Z,27.55
2018-02-10T11:25:19.827Z,24.27
2018-02-10T11:27:51.294Z,26.58
2018-02-10T11:30:19.972Z,28.58
2018-02-10T11:32:48.655Z,29.02
2018-02-10T11:35:17.311Z,29.27
2018-02-10T11:37:47.985Z,30.25
2018-02-10T11:40:16.665Z,28.80
2018-02-10T11:42:45.948Z,27.65
2018-02-10T11:45:14.623Z,29.42
2018-02-10T11:47:43.287Z,24.40
2018-02-10T11:50:11.959Z,25.35
2018-02-10T11:52:40.639Z,24.23
2018-02-10T11:55:09.335Z,25.15
2018-02-10T11:57:38.006Z,27.55
2018-02-10T12:00:06.172Z,28.58
2018-02-10T12:02:34.843Z,28.00
2018-02-10T12:05:03.563Z,24.08
2018-02-10T12:07:32.235Z,24.45
2018-02-10T12:10:01.753Z,23.80
2018-02-10T12:12:30.475Z,23.40
2018-02-10T12:14:59.896Z,22.77
2018-02-10T12:17:28.629Z,23.27
2018-02-10T12:20:00.336Z,20.95
2018-02-10T12:22:29.176Z,20.37
2018-02-10T12:24:57.847Z,23.05
2018-02-10T12:27:26.565Z,22.35
2018-02-10T12:30:14.448Z,21.10
2018-02-10T12:32:43.192Z,23.48
2018-02-10T12:35:12.253Z,23.95
2018-02-10T12:37:40.928Z,23.92
2018-02-10T12:40:09.611Z,23.23
2018-02-10T12:42:38.283Z,25.00
2018-02-10T12:45:06.955Z,25.58
2018-02-10T12:47:53.023Z,24.65
2018-02-10T12:50:21.704Z,24.80
2018-02-10T12:52:50.383Z,27.35
2018-02-10T12:55:19.260Z,26.85
2018-02-10T12:57:47.913Z,23.67
2018-02-10T13:00:17.351Z,23.38
2018-02-10T13:02:46.015Z,23.73
2018-02-10T13:05:14.710Z,25.20
2018-02-10T13:07:43.368Z,25.50
2018-02-10T13:10:12.823Z,24.12
2018-02-10T13:12:41.522Z,22.45
2018-02-10T13:15:10.199Z,24.40
2018-02-10T13:17:38.883Z,24.12
2018-02-10T13:20:07.558Z,24.48
2018-02-10T13:22:36.248Z,24.00
2018-02-10T13:25:04.606Z,25.40
2018-02-10T13:27:33.276Z,23.67
2018-02-10T13:30:02.540Z,23.08
2018-02-10T13:32:31.248Z,24.95
2018-02-10T13:34:59.958Z,23.58
2018-02-10T13:37:29.194Z,22.80
2018-02-10T13:39:57.870Z,25.45
2018-02-10T13:42:26.540Z,22.77
2018-02-10T13:44:55.218Z,24.83
2018-02-10T13:47:23.872Z,23.77
2018-02-10T13:49:52.550Z,24.48
2018-02-10T13:52:21.211Z,23.02
2018-02-10T13:54:49.911Z,24.98
2018-02-10T13:57:19.539Z,25.15
2018-02-10T13:59:48.229Z,26.17
2018-02-10T14:02:16.882Z,26.10
2018-02-10T14:04:45.540Z,26.27
2018-02-10T14:07:14.881Z,25.27
2018-02-10T14:09:43.555Z,23.62
2018-02-10T14:12:12.247Z,25.33
2018-02-10T14:14:40.919Z,24.10
2018-02-10T14:17:09.615Z,24.90
2018-02-10T14:19:38.269Z,25.45
2018-02-10T14:22:07.999Z,25.92
2018-02-10T15:51:00.525Z,34.28
2018-02-10T15:56:07.690Z,31.50
2018-02-10T16:44:08.099Z,36.15
2018-02-10T16:49:48.777Z,36.70
2018-02-10T16:55:22.088Z,36.95
2018-02-10T16:58:01.913Z,41.95
2018-02-10T17:00:45.305Z,39.13
2018-02-10T17:03:26.237Z,34.67
2018-02-10T17:05:58.874Z,47.58
2018-02-10T17:11:26.564Z,35.90
2018-02-10T17:14:03.054Z,37.55
2018-02-10T17:16:53.520Z,33.83
2018-02-10T17:19:39.213Z,36.17
2018-02-10T17:22:07.904Z,35.75
2018-02-10T17:24:36.609Z,37.35
2018-02-10T17:27:05.283Z,37.50
2018-02-10T17:29:34.570Z,37.65
2018-02-10T17:32:03.277Z,37.83
2018-02-10T17:34:51.498Z,37.10
2018-02-10T19:14:37.578Z,34.85
2018-02-10T19:20:18.016Z,38.47
2018-02-10T19:26:12.068Z,38.40
2018-02-10T19:28:40.784Z,37.38
2018-02-10T19:31:09.532Z,38.80
2018-02-10T19:33:38.294Z,38.30
2018-02-10T19:36:07.056Z,36.13
2018-02-10T19:38:35.536Z,37.30
2018-02-10T19:41:05.073Z,37.60
2018-02-10T19:43:34.886Z,36.83
2018-02-10T19:46:05.040Z,37.30
2018-02-10T19:48:33.701Z,34.85
2018-02-10T19:51:02.401Z,36.42
2018-02-10T19:53:31.074Z,37.30
2018-02-10T19:55:59.836Z,34.50
2018-02-10T19:58:29.316Z,36.42
2018-02-10T20:00:58.004Z,39.22
2018-02-10T20:03:26.706Z,39.10
2018-02-10T20:05:55.378Z,35.22
2018-02-10T20:08:24.059Z,35.72
2018-02-10T20:10:52.725Z,37.38
2018-02-10T20:13:22.124Z,32.88
2018-02-10T20:15:50.824Z,34.17
2018-02-10T20:18:20.251Z,33.95
2018-02-10T20:20:48.941Z,36.85
2018-02-10T20:23:17.980Z,34.53
2018-02-10T20:25:46.653Z,33.45
2018-02-10T20:28:15.307Z,35.67
2018-02-10T20:30:43.965Z,37.00
2018-02-10T20:33:12.633Z,33.92
2018-02-10T20:35:41.343Z,36.97
2018-02-10T20:38:10.939Z,34.90
2018-02-10T20:40:39.600Z,34.53
2018-02-10T20:43:08.272Z,34.67
2018-02-10T20:45:37.370Z,34.08
2018-02-10T20:48:06.832Z,35.67
2018-02-10T20:50:35.479Z,32.67
2018-02-10T20:53:04.178Z,34.03
2018-02-10T20:55:32.845Z,33.75
2018-02-10T20:58:02.267Z,33.65
2018-02-10T21:00:30.963Z,34.78
2018-02-10T21:02:59.610Z,33.05
2018-02-10T21:05:29.118Z,34.53
2018-02-10T21:07:58.558Z,31.52
2018-02-10T21:10:27.250Z,33.38
2018-02-10T21:12:55.923Z,31.95
2018-02-10T21:15:24.566Z,31.55
2018-02-10T21:17:53.230Z,31.87
2018-02-10T21:20:21.891Z,31.10
2018-02-10T21:22:50.575Z,33.15
2018-02-10T21:25:19.258Z,32.53
2018-02-10T21:27:47.928Z,34.90
2018-02-10T21:30:17.362Z,33.83
2018-02-10T21:32:46.017Z,31.95
2018-02-10T21:35:14.710Z,36.55
2018-02-10T21:37:43.390Z,38.00
2018-02-10T21:40:12.167Z,39.35
2018-02-10T21:42:42.547Z,42.45
2018-02-10T21:45:11.223Z,42.92
2018-02-10T21:47:39.880Z,42.65
2018-02-10T21:50:08.542Z,45.85
2018-02-10T21:52:37.239Z,46.88
2018-02-10T21:55:06.667Z,46.95
2018-02-10T21:57:35.343Z,50.55
2018-02-10T22:00:03.694Z,46.53
2018-02-10T22:02:32.376Z,51.92
2018-02-10T22:05:01.059Z,49.67
2018-02-10T22:07:29.753Z,45.78
2018-02-10T22:09:58.427Z,38.83
2018-02-10T22:12:27.146Z,43.72
2018-02-10T22:14:59.159Z,39.55
2018-02-10T22:17:27.848Z,39.25
2018-02-10T22:19:56.515Z,37.20
2018-02-10T22:22:25.175Z,35.75
2018-02-10T22:24:53.843Z,38.97
2018-02-10T22:27:22.508Z,36.05
2018-02-10T22:29:52.462Z,37.05
2018-02-10T22:32:21.154Z,36.08
2018-02-10T22:34:50.607Z,36.88
2018-02-10T22:37:19.275Z,33.92
2018-02-10T22:39:47.928Z,34.70
2018-02-10T22:42:17.375Z,36.38
2018-02-10T22:44:46.060Z,36.20
2018-02-10T22:47:14.754Z,37.97
2018-02-10T22:49:43.456Z,37.40
2018-02-10T22:52:12.157Z,38.25
2018-02-10T22:54:40.816Z,41.00
2018-02-10T22:57:09.488Z,39.60
2018-02-10T22:59:40.916Z,37.70
2018-02-10T23:02:09.586Z,40.70
2018-02-10T23:04:39.035Z,37.15
2018-02-10T23:07:07.694Z,38.15
2018-02-10T23:09:36.383Z,39.35
2018-02-10T23:12:05.048Z,39.47
2018-02-10T23:14:34.483Z,36.38
2018-02-10T23:17:03.166Z,38.08
2018-02-10T23:19:31.824Z,34.95
2018-02-10T23:22:01.259Z,36.53
2018-02-10T23:24:29.923Z,36.50
2018-02-10T23:26:59.370Z,36.95
2018-02-10T23:29:28.039Z,36.03
2018-02-10T23:31:56.886Z,34.85
2018-02-10T23:34:25.555Z,33.72
2018-02-10T23:36:54.223Z,33.50
2018-02-10T23:39:22.891Z,32.75
2018-02-10T23:41:51.540Z,33.40
2018-02-10T23:44:20.208Z,34.63
2018-02-10T23:46:48.871Z,45.30
2018-02-10T23:49:17.555Z,35.45
2018-02-10T23:51:46.208Z,31.77
2018-02-10T23:54:14.868Z,32.30
2018-02-10T23:56:43.553Z,32.78
2018-02-10T23:59:12.202Z,33.20
